Overview Statistics Trail Chart Weather Telemetry Raw packets
 

This is the latest recevied weather packets stored in our database for station/object HS3UAA-1. If no packets are shown the sender has not sent any weather packets the latest 10 day(s).

<< 81 82 83 84 85 86 87 >>
Time Temp. Humidity Pressure Rain* Wind** Luminosity Snow
1788001748 33.33° C 45% 994 hPa - - 0 W/m² -
1788001426 32.78° C 46% 994 hPa - - 0 W/m² -
1788001104 32.78° C 46% 994 hPa - - 0 W/m² -
1788000782 32.78° C 46% 994 hPa - - 0 W/m² -
1788000460 32.22° C 46% 994 hPa - - 0 W/m² -
1788000138 32.22° C 46% 994 hPa - - 0 W/m² -
1787999816 32.22° C 46% 994 hPa - - 0 W/m² -
1787999494 31.67° C 46% 994 hPa - - 0 W/m² -
1787999172 31.67° C 47% 994 hPa - - 0 W/m² -
1787998850 31.11° C 48% 994 hPa - - 0 W/m² -
1787998528 30.56° C 49% 994 hPa - - 0 W/m² -
1787998219 29.44° C 52% 994 hPa - - 0 W/m² -
1787997835 29.44° C 49% 994 hPa - - 0 W/m² -
1787997247 28.89° C 54% 994 hPa - - 0 W/m² -
1787996925 28.89° C 54% 994 hPa - - 0 W/m² -
1787996604 28.89° C 52% 994 hPa - - 0 W/m² -
1787996281 28.89° C 49% 994 hPa - - 0 W/m² -
1787995959 28.89° C 50% 994 hPa - - 0 W/m² -
1787995637 29.44° C 51% 994 hPa - - 0 W/m² -
1787995315 28.89° C 53% 994 hPa - - 0 W/m² -
1787994993 28.89° C 54% 994 hPa - - 0 W/m² -
1787994672 29.44° C 52% 994 hPa - - 0 W/m² -
1787994349 28.89° C 51% 994 hPa - - 0 W/m² -
1787994027 28.89° C 49% 994 hPa - - 0 W/m² -
1787993705 28.89° C 48% 994 hPa - - 0 W/m² -

* Rain since midnight (hover to see other rain measurements)
** Current wind speed in m/s (hover to see current wind gust speed)